sensor_id;sensor_type;location;lat;lon;timestamp;temperature;humidity
9837;DHT22;4957;51.412;6.724;2023-04-03T00:00:57;4.50;91.20
9837;DHT22;4957;51.412;6.724;2023-04-03T00:03:23;4.40;91.20
9837;DHT22;4957;51.412;6.724;2023-04-03T00:05:49;4.40;91.20
9837;DHT22;4957;51.412;6.724;2023-04-03T00:08:14;4.30;91.20
9837;DHT22;4957;51.412;6.724;2023-04-03T00:10:40;4.30;91.20
9837;DHT22;4957;51.412;6.724;2023-04-03T00:13:07;4.30;91.20
9837;DHT22;4957;51.412;6.724;2023-04-03T00:15:34;4.20;91.30
9837;DHT22;4957;51.412;6.724;2023-04-03T00:18:00;4.20;91.30
9837;DHT22;4957;51.412;6.724;2023-04-03T00:20:25;4.20;91.30
9837;DHT22;4957;51.412;6.724;2023-04-03T00:22:53;4.10;91.30
9837;DHT22;4957;51.412;6.724;2023-04-03T00:25:19;4.10;91.30
9837;DHT22;4957;51.412;6.724;2023-04-03T00:27:45;4.10;91.40
9837;DHT22;4957;51.412;6.724;2023-04-03T00:30:14;4.10;91.30
9837;DHT22;4957;51.412;6.724;2023-04-03T00:32:40;4.00;91.30
9837;DHT22;4957;51.412;6.724;2023-04-03T00:35:06;4.00;91.40
9837;DHT22;4957;51.412;6.724;2023-04-03T00:37:32;3.90;91.40
9837;DHT22;4957;51.412;6.724;2023-04-03T00:39:58;3.90;91.40
9837;DHT22;4957;51.412;6.724;2023-04-03T00:42:24;3.90;91.50
9837;DHT22;4957;51.412;6.724;2023-04-03T00:47:22;3.90;91.60
9837;DHT22;4957;51.412;6.724;2023-04-03T00:49:49;3.80;91.60
9837;DHT22;4957;51.412;6.724;2023-04-03T00:52:17;3.80;91.70
9837;DHT22;4957;51.412;6.724;2023-04-03T00:54:46;3.80;91.80
9837;DHT22;4957;51.412;6.724;2023-04-03T00:57:13;3.80;92.20
9837;DHT22;4957;51.412;6.724;2023-04-03T00:59:43;3.70;91.80
9837;DHT22;4957;51.412;6.724;2023-04-03T01:02:10;3.70;91.90
9837;DHT22;4957;51.412;6.724;2023-04-03T01:04:41;3.70;92.00
9837;DHT22;4957;51.412;6.724;2023-04-03T01:09:41;3.60;92.10
9837;DHT22;4957;51.412;6.724;2023-04-03T01:12:19;3.60;92.30
9837;DHT22;4957;51.412;6.724;2023-04-03T01:14:45;3.60;92.30
9837;DHT22;4957;51.412;6.724;2023-04-03T01:17:46;3.60;92.30
9837;DHT22;4957;51.412;6.724;2023-04-03T01:20:31;3.60;92.40
9837;DHT22;4957;51.412;6.724;2023-04-03T01:25:57;3.50;92.50
9837;DHT22;4957;51.412;6.724;2023-04-03T01:28:27;3.40;92.70
9837;DHT22;4957;51.412;6.724;2023-04-03T01:31:28;3.40;92.80
9837;DHT22;4957;51.412;6.724;2023-04-03T01:33:56;3.40;92.80
9837;DHT22;4957;51.412;6.724;2023-04-03T01:36:25;3.30;93.00
9837;DHT22;4957;51.412;6.724;2023-04-03T01:38:53;3.20;93.00
9837;DHT22;4957;51.412;6.724;2023-04-03T01:41:19;3.20;93.30
9837;DHT22;4957;51.412;6.724;2023-04-03T01:43:46;3.20;93.30
9837;DHT22;4957;51.412;6.724;2023-04-03T01:46:13;3.20;93.60
9837;DHT22;4957;51.412;6.724;2023-04-03T01:48:38;3.20;93.70
9837;DHT22;4957;51.412;6.724;2023-04-03T01:51:04;3.10;93.80
9837;DHT22;4957;51.412;6.724;2023-04-03T01:53:30;3.20;94.00
9837;DHT22;4957;51.412;6.724;2023-04-03T01:55:56;3.10;94.10
9837;DHT22;4957;51.412;6.724;2023-04-03T01:58:22;3.10;94.20
9837;DHT22;4957;51.412;6.724;2023-04-03T02:00:47;3.10;94.40
9837;DHT22;4957;51.412;6.724;2023-04-03T02:03:13;3.10;94.50
9837;DHT22;4957;51.412;6.724;2023-04-03T02:05:40;3.10;94.50
9837;DHT22;4957;51.412;6.724;2023-04-03T02:08:06;3.10;94.60
9837;DHT22;4957;51.412;6.724;2023-04-03T02:10:32;3.10;94.80
9837;DHT22;4957;51.412;6.724;2023-04-03T02:12:58;3.10;94.90
9837;DHT22;4957;51.412;6.724;2023-04-03T02:15:23;3.10;95.00
9837;DHT22;4957;51.412;6.724;2023-04-03T02:17:50;3.10;95.10
9837;DHT22;4957;51.412;6.724;2023-04-03T02:20:15;3.10;95.20
9837;DHT22;4957;51.412;6.724;2023-04-03T02:22:41;3.10;95.20
9837;DHT22;4957;51.412;6.724;2023-04-03T02:25:07;3.10;95.30
9837;DHT22;4957;51.412;6.724;2023-04-03T02:27:33;3.00;95.30
9837;DHT22;4957;51.412;6.724;2023-04-03T02:29:59;3.00;95.40
9837;DHT22;4957;51.412;6.724;2023-04-03T02:32:24;3.10;95.60
9837;DHT22;4957;51.412;6.724;2023-04-03T02:34:50;3.10;95.70
9837;DHT22;4957;51.412;6.724;2023-04-03T02:37:16;3.10;95.70
9837;DHT22;4957;51.412;6.724;2023-04-03T02:39:41;3.10;95.70
9837;DHT22;4957;51.412;6.724;2023-04-03T02:42:07;3.10;95.80
9837;DHT22;4957;51.412;6.724;2023-04-03T02:44:33;3.10;95.90
9837;DHT22;4957;51.412;6.724;2023-04-03T02:46:59;3.10;95.90
9837;DHT22;4957;51.412;6.724;2023-04-03T02:49:24;3.10;96.00
9837;DHT22;4957;51.412;6.724;2023-04-03T02:51:50;3.10;96.10
9837;DHT22;4957;51.412;6.724;2023-04-03T02:54:16;3.00;96.00
9837;DHT22;4957;51.412;6.724;2023-04-03T02:56:42;3.00;96.10
9837;DHT22;4957;51.412;6.724;2023-04-03T02:59:08;3.00;96.50
9837;DHT22;4957;51.412;6.724;2023-04-03T03:01:34;3.00;96.20
9837;DHT22;4957;51.412;6.724;2023-04-03T03:04:01;3.00;96.30
9837;DHT22;4957;51.412;6.724;2023-04-03T03:06:27;3.00;96.30
9837;DHT22;4957;51.412;6.724;2023-04-03T03:08:52;3.00;96.40
9837;DHT22;4957;51.412;6.724;2023-04-03T03:11:18;3.00;96.50
9837;DHT22;4957;51.412;6.724;2023-04-03T03:13:44;3.00;96.50
9837;DHT22;4957;51.412;6.724;2023-04-03T03:16:10;2.90;96.50
9837;DHT22;4957;51.412;6.724;2023-04-03T03:18:36;2.90;96.60
9837;DHT22;4957;51.412;6.724;2023-04-03T03:21:03;2.90;96.60
9837;DHT22;4957;51.412;6.724;2023-04-03T03:23:30;2.90;96.70
9837;DHT22;4957;51.412;6.724;2023-04-03T03:26:08;2.90;96.70
9837;DHT22;4957;51.412;6.724;2023-04-03T03:28:36;2.90;96.80
9837;DHT22;4957;51.412;6.724;2023-04-03T03:31:02;2.90;96.80
9837;DHT22;4957;51.412;6.724;2023-04-03T03:33:29;2.90;96.80
9837;DHT22;4957;51.412;6.724;2023-04-03T03:35:55;2.90;96.80
9837;DHT22;4957;51.412;6.724;2023-04-03T03:38:22;2.90;96.80
9837;DHT22;4957;51.412;6.724;2023-04-03T03:40:48;2.90;96.80
9837;DHT22;4957;51.412;6.724;2023-04-03T03:43:15;2.90;97.00
9837;DHT22;4957;51.412;6.724;2023-04-03T03:45:41;2.80;97.00
9837;DHT22;4957;51.412;6.724;2023-04-03T03:48:07;2.80;97.00
9837;DHT22;4957;51.412;6.724;2023-04-03T03:50:33;2.90;97.10
9837;DHT22;4957;51.412;6.724;2023-04-03T03:52:58;2.80;97.10
9837;DHT22;4957;51.412;6.724;2023-04-03T03:55:24;2.80;97.20
9837;DHT22;4957;51.412;6.724;2023-04-03T03:57:50;2.80;97.20
9837;DHT22;4957;51.412;6.724;2023-04-03T04:00:16;2.80;97.30
9837;DHT22;4957;51.412;6.724;2023-04-03T04:02:42;2.80;97.30
9837;DHT22;4957;51.412;6.724;2023-04-03T04:05:08;2.80;97.30
9837;DHT22;4957;51.412;6.724;2023-04-03T04:07:34;2.80;97.40
9837;DHT22;4957;51.412;6.724;2023-04-03T04:10:00;2.80;97.50
9837;DHT22;4957;51.412;6.724;2023-04-03T04:12:26;2.80;97.50
9837;DHT22;4957;51.412;6.724;2023-04-03T04:14:52;2.80;97.60
9837;DHT22;4957;51.412;6.724;2023-04-03T04:17:17;2.70;97.60
9837;DHT22;4957;51.412;6.724;2023-04-03T04:19:43;2.80;97.80
9837;DHT22;4957;51.412;6.724;2023-04-03T04:22:09;2.70;97.80
9837;DHT22;4957;51.412;6.724;2023-04-03T04:24:35;2.70;97.90
9837;DHT22;4957;51.412;6.724;2023-04-03T04:27:00;2.70;97.90
9837;DHT22;4957;51.412;6.724;2023-04-03T04:29:26;2.70;97.90
9837;DHT22;4957;51.412;6.724;2023-04-03T04:31:52;2.70;97.90
9837;DHT22;4957;51.412;6.724;2023-04-03T04:34:17;2.70;97.90
9837;DHT22;4957;51.412;6.724;2023-04-03T04:36:43;2.70;97.90
9837;DHT22;4957;51.412;6.724;2023-04-03T04:39:09;2.70;98.00
9837;DHT22;4957;51.412;6.724;2023-04-03T04:41:35;2.70;98.00
9837;DHT22;4957;51.412;6.724;2023-04-03T04:44:01;2.60;98.00
9837;DHT22;4957;51.412;6.724;2023-04-03T04:46:27;2.70;98.10
9837;DHT22;4957;51.412;6.724;2023-04-03T04:48:53;2.70;98.20
9837;DHT22;4957;51.412;6.724;2023-04-03T04:51:18;2.60;98.00
9837;DHT22;4957;51.412;6.724;2023-04-03T04:53:44;2.60;98.10
9837;DHT22;4957;51.412;6.724;2023-04-03T04:56:10;2.60;98.10
9837;DHT22;4957;51.412;6.724;2023-04-03T04:58:36;2.60;98.10
9837;DHT22;4957;51.412;6.724;2023-04-03T05:01:07;2.60;98.20
9837;DHT22;4957;51.412;6.724;2023-04-03T05:03:33;2.60;98.20
9837;DHT22;4957;51.412;6.724;2023-04-03T05:05:59;2.60;98.20
9837;DHT22;4957;51.412;6.724;2023-04-03T05:08:24;2.60;98.30
9837;DHT22;4957;51.412;6.724;2023-04-03T05:10:51;2.60;98.30
9837;DHT22;4957;51.412;6.724;2023-04-03T05:13:17;2.60;98.30
9837;DHT22;4957;51.412;6.724;2023-04-03T05:15:43;2.60;98.40
9837;DHT22;4957;51.412;6.724;2023-04-03T05:18:08;2.60;98.40
9837;DHT22;4957;51.412;6.724;2023-04-03T05:20:34;2.60;98.50
9837;DHT22;4957;51.412;6.724;2023-04-03T05:23:00;2.60;98.50
9837;DHT22;4957;51.412;6.724;2023-04-03T05:25:27;2.60;98.50
9837;DHT22;4957;51.412;6.724;2023-04-03T05:27:52;2.60;98.40
9837;DHT22;4957;51.412;6.724;2023-04-03T05:30:18;2.60;98.50
9837;DHT22;4957;51.412;6.724;2023-04-03T05:32:44;2.60;98.50
9837;DHT22;4957;51.412;6.724;2023-04-03T05:35:10;2.60;98.50
9837;DHT22;4957;51.412;6.724;2023-04-03T05:37:36;2.60;98.40
9837;DHT22;4957;51.412;6.724;2023-04-03T05:40:03;2.60;98.40
9837;DHT22;4957;51.412;6.724;2023-04-03T05:42:29;2.60;98.40
9837;DHT22;4957;51.412;6.724;2023-04-03T05:44:55;2.60;98.50
9837;DHT22;4957;51.412;6.724;2023-04-03T05:47:21;2.60;98.40
9837;DHT22;4957;51.412;6.724;2023-04-03T05:49:47;2.60;98.40
9837;DHT22;4957;51.412;6.724;2023-04-03T05:52:33;2.60;98.40
9837;DHT22;4957;51.412;6.724;2023-04-03T05:55:00;2.70;98.40
9837;DHT22;4957;51.412;6.724;2023-04-03T05:57:26;2.60;98.40
9837;DHT22;4957;51.412;6.724;2023-04-03T05:59:52;2.60;98.40
9837;DHT22;4957;51.412;6.724;2023-04-03T06:02:20;2.70;98.50
9837;DHT22;4957;51.412;6.724;2023-04-03T06:04:46;2.80;98.80
9837;DHT22;4957;51.412;6.724;2023-04-03T06:07:18;2.80;98.90
9837;DHT22;4957;51.412;6.724;2023-04-03T06:09:46;2.90;99.10
9837;DHT22;4957;51.412;6.724;2023-04-03T06:12:12;2.90;99.20
9837;DHT22;4957;51.412;6.724;2023-04-03T06:14:38;3.00;99.20
9837;DHT22;4957;51.412;6.724;2023-04-03T06:17:04;3.10;99.60
9837;DHT22;4957;51.412;6.724;2023-04-03T06:19:31;3.20;99.40
9837;DHT22;4957;51.412;6.724;2023-04-03T06:21:57;3.40;99.40
9837;DHT22;4957;51.412;6.724;2023-04-03T06:24:22;3.50;99.40
9837;DHT22;4957;51.412;6.724;2023-04-03T06:26:50;3.60;99.50
9837;DHT22;4957;51.412;6.724;2023-04-03T06:29:17;3.70;99.60
9837;DHT22;4957;51.412;6.724;2023-04-03T06:31:43;3.90;99.80
9837;DHT22;4957;51.412;6.724;2023-04-03T06:34:09;4.00;99.70
9837;DHT22;4957;51.412;6.724;2023-04-03T06:36:36;4.20;99.60
9837;DHT22;4957;51.412;6.724;2023-04-03T06:39:02;4.30;99.60
9837;DHT22;4957;51.412;6.724;2023-04-03T06:41:28;4.40;99.70
9837;DHT22;4957;51.412;6.724;2023-04-03T06:43:54;4.50;99.70
9837;DHT22;4957;51.412;6.724;2023-04-03T06:46:22;4.50;99.80
9837;DHT22;4957;51.412;6.724;2023-04-03T06:48:48;4.70;99.90
9837;DHT22;4957;51.412;6.724;2023-04-03T06:53:48;5.10;99.70
9837;DHT22;4957;51.412;6.724;2023-04-03T06:56:14;5.20;99.50
9837;DHT22;4957;51.412;6.724;2023-04-03T06:58:40;5.30;99.40
9837;DHT22;4957;51.412;6.724;2023-04-03T07:01:08;5.50;99.00
9837;DHT22;4957;51.412;6.724;2023-04-03T07:03:35;5.70;98.90
9837;DHT22;4957;51.412;6.724;2023-04-03T07:06:02;5.90;97.80
9837;DHT22;4957;51.412;6.724;2023-04-03T07:08:28;6.00;97.70
9837;DHT22;4957;51.412;6.724;2023-04-03T07:10:54;6.10;97.80
9837;DHT22;4957;51.412;6.724;2023-04-03T07:13:20;6.30;97.60
9837;DHT22;4957;51.412;6.724;2023-04-03T07:15:45;6.40;97.30
9837;DHT22;4957;51.412;6.724;2023-04-03T07:18:11;6.50;97.20
9837;DHT22;4957;51.412;6.724;2023-04-03T07:20:38;6.60;97.00
9837;DHT22;4957;51.412;6.724;2023-04-03T07:23:04;6.70;97.00
9837;DHT22;4957;51.412;6.724;2023-04-03T07:25:30;6.90;96.90
9837;DHT22;4957;51.412;6.724;2023-04-03T07:27:57;6.90;96.60
9837;DHT22;4957;51.412;6.724;2023-04-03T07:30:23;7.00;96.50
9837;DHT22;4957;51.412;6.724;2023-04-03T07:32:49;7.20;96.50
9837;DHT22;4957;51.412;6.724;2023-04-03T07:35:15;7.30;96.40
9837;DHT22;4957;51.412;6.724;2023-04-03T07:37:41;7.50;95.70
9837;DHT22;4957;51.412;6.724;2023-04-03T07:40:08;7.70;95.40
9837;DHT22;4957;51.412;6.724;2023-04-03T07:42:34;7.80;95.10
9837;DHT22;4957;51.412;6.724;2023-04-03T07:45:01;8.00;94.50
9837;DHT22;4957;51.412;6.724;2023-04-03T07:47:27;8.10;94.60
9837;DHT22;4957;51.412;6.724;2023-04-03T07:49:53;8.20;94.50
9837;DHT22;4957;51.412;6.724;2023-04-03T07:52:18;8.30;93.80
9837;DHT22;4957;51.412;6.724;2023-04-03T07:54:44;8.50;93.10
9837;DHT22;4957;51.412;6.724;2023-04-03T07:57:10;8.70;93.00
9837;DHT22;4957;51.412;6.724;2023-04-03T07:59:36;8.80;92.90
9837;DHT22;4957;51.412;6.724;2023-04-03T08:02:01;8.90;92.50
9837;DHT22;4957;51.412;6.724;2023-04-03T08:04:30;9.00;92.20
9837;DHT22;4957;51.412;6.724;2023-04-03T08:06:55;9.10;92.30
9837;DHT22;4957;51.412;6.724;2023-04-03T08:09:21;9.20;92.30
9837;DHT22;4957;51.412;6.724;2023-04-03T08:11:47;9.30;92.00
9837;DHT22;4957;51.412;6.724;2023-04-03T08:14:13;9.40;92.20
9837;DHT22;4957;51.412;6.724;2023-04-03T08:16:43;9.60;91.80
9837;DHT22;4957;51.412;6.724;2023-04-03T08:19:09;9.80;90.30
9837;DHT22;4957;51.412;6.724;2023-04-03T08:21:36;10.00;89.10
9837;DHT22;4957;51.412;6.724;2023-04-03T08:24:01;10.10;88.50
9837;DHT22;4957;51.412;6.724;2023-04-03T08:26:29;10.30;87.70
9837;DHT22;4957;51.412;6.724;2023-04-03T08:28:55;10.50;82.50
9837;DHT22;4957;51.412;6.724;2023-04-03T08:31:21;10.90;80.50
9837;DHT22;4957;51.412;6.724;2023-04-03T08:33:47;11.20;77.20
9837;DHT22;4957;51.412;6.724;2023-04-03T08:36:24;11.40;75.30
9837;DHT22;4957;51.412;6.724;2023-04-03T08:38:52;11.40;76.50
9837;DHT22;4957;51.412;6.724;2023-04-03T08:41:34;11.40;75.70
9837;DHT22;4957;51.412;6.724;2023-04-03T08:49:31;12.20;66.80
9837;DHT22;4957;51.412;6.724;2023-04-03T08:52:00;12.20;67.90
9837;DHT22;4957;51.412;6.724;2023-04-03T08:54:33;12.20;71.20
9837;DHT22;4957;51.412;6.724;2023-04-03T08:57:01;12.30;67.90
9837;DHT22;4957;51.412;6.724;2023-04-03T08:59:31;12.30;68.30
9837;DHT22;4957;51.412;6.724;2023-04-03T09:01:59;12.50;67.70
9837;DHT22;4957;51.412;6.724;2023-04-03T09:04:28;12.60;70.80
9837;DHT22;4957;51.412;6.724;2023-04-03T09:07:13;12.60;68.50
9837;DHT22;4957;51.412;6.724;2023-04-03T09:09:42;12.70;66.30
9837;DHT22;4957;51.412;6.724;2023-04-03T09:12:24;12.70;68.70
9837;DHT22;4957;51.412;6.724;2023-04-03T09:15:20;12.80;62.70
9837;DHT22;4957;51.412;6.724;2023-04-03T09:18:06;13.30;57.80
9837;DHT22;4957;51.412;6.724;2023-04-03T09:23:42;13.60;57.30
9837;DHT22;4957;51.412;6.724;2023-04-03T09:26:17;14.00;50.20
9837;DHT22;4957;51.412;6.724;2023-04-03T09:28:45;14.50;51.90
9837;DHT22;4957;51.412;6.724;2023-04-03T09:31:38;14.70;48.50
9837;DHT22;4957;51.412;6.724;2023-04-03T09:34:27;15.00;46.30
9837;DHT22;4957;51.412;6.724;2023-04-03T09:36:55;15.20;45.90
9837;DHT22;4957;51.412;6.724;2023-04-03T09:39:27;15.10;46.80
9837;DHT22;4957;51.412;6.724;2023-04-03T09:44:33;15.10;47.40
9837;DHT22;4957;51.412;6.724;2023-04-03T09:46:59;15.20;47.70
9837;DHT22;4957;51.412;6.724;2023-04-03T09:49:26;15.10;45.00
9837;DHT22;4957;51.412;6.724;2023-04-03T09:51:52;15.30;43.80
9837;DHT22;4957;51.412;6.724;2023-04-03T09:54:37;15.40;43.60
9837;DHT22;4957;51.412;6.724;2023-04-03T09:57:14;15.40;42.40
9837;DHT22;4957;51.412;6.724;2023-04-03T09:59:56;15.50;42.70
9837;DHT22;4957;51.412;6.724;2023-04-03T10:02:43;15.40;44.10
9837;DHT22;4957;51.412;6.724;2023-04-03T10:08:31;15.60;40.20
9837;DHT22;4957;51.412;6.724;2023-04-03T10:11:10;15.50;41.60
9837;DHT22;4957;51.412;6.724;2023-04-03T10:13:49;15.40;42.70
9837;DHT22;4957;51.412;6.724;2023-04-03T10:16:18;15.40;41.40
9837;DHT22;4957;51.412;6.724;2023-04-03T10:24:25;15.50;38.50
9837;DHT22;4957;51.412;6.724;2023-04-03T10:27:18;15.50;38.50
9837;DHT22;4957;51.412;6.724;2023-04-03T10:30:04;15.50;37.70
9837;DHT22;4957;51.412;6.724;2023-04-03T10:32:49;15.50;37.90
9837;DHT22;4957;51.412;6.724;2023-04-03T10:38:19;15.60;36.50
9837;DHT22;4957;51.412;6.724;2023-04-03T10:41:29;15.70;36.30
9837;DHT22;4957;51.412;6.724;2023-04-03T10:47:04;15.80;36.90
9837;DHT22;4957;51.412;6.724;2023-04-03T10:52:24;15.90;36.60
9837;DHT22;4957;51.412;6.724;2023-04-03T10:57:34;16.20;34.40
9837;DHT22;4957;51.412;6.724;2023-04-03T11:00:23;16.50;35.20
9837;DHT22;4957;51.412;6.724;2023-04-03T11:02:56;16.50;35.90
9837;DHT22;4957;51.412;6.724;2023-04-03T11:10:57;16.50;37.60
9837;DHT22;4957;51.412;6.724;2023-04-03T11:13:52;16.50;37.00
9837;DHT22;4957;51.412;6.724;2023-04-03T11:16:27;16.70;34.40
9837;DHT22;4957;51.412;6.724;2023-04-03T11:19:14;16.80;34.40
9837;DHT22;4957;51.412;6.724;2023-04-03T11:24:25;16.70;37.30
9837;DHT22;4957;51.412;6.724;2023-04-03T11:26:53;16.60;36.00
9837;DHT22;4957;51.412;6.724;2023-04-03T11:29:29;16.50;35.00
9837;DHT22;4957;51.412;6.724;2023-04-03T11:34:48;16.50;35.10
9837;DHT22;4957;51.412;6.724;2023-04-03T11:40:25;16.30;36.10
9837;DHT22;4957;51.412;6.724;2023-04-03T11:42:55;16.20;35.20
9837;DHT22;4957;51.412;6.724;2023-04-03T11:47:53;16.20;36.10
9837;DHT22;4957;51.412;6.724;2023-04-03T12:05:51;15.80;36.70
9837;DHT22;4957;51.412;6.724;2023-04-03T12:08:28;15.80;37.90
9837;DHT22;4957;51.412;6.724;2023-04-03T12:16:24;15.50;38.70
9837;DHT22;4957;51.412;6.724;2023-04-03T12:29:23;15.30;38.30
9837;DHT22;4957;51.412;6.724;2023-04-03T12:37:31;15.10;35.90
9837;DHT22;4957;51.412;6.724;2023-04-03T12:43:02;15.00;36.20
9837;DHT22;4957;51.412;6.724;2023-04-03T12:45:46;15.00;34.10
9837;DHT22;4957;51.412;6.724;2023-04-03T12:48:16;14.90;35.50
9837;DHT22;4957;51.412;6.724;2023-04-03T12:50:47;14.90;34.80
9837;DHT22;4957;51.412;6.724;2023-04-03T12:53:29;14.80;37.50
9837;DHT22;4957;51.412;6.724;2023-04-03T12:58:46;14.60;37.00
9837;DHT22;4957;51.412;6.724;2023-04-03T13:01:18;14.60;38.30
9837;DHT22;4957;51.412;6.724;2023-04-03T13:03:49;14.50;39.20
9837;DHT22;4957;51.412;6.724;2023-04-03T13:06:23;14.50;38.00
9837;DHT22;4957;51.412;6.724;2023-04-03T13:08:55;14.50;37.70
9837;DHT22;4957;51.412;6.724;2023-04-03T13:11:23;14.50;37.30
9837;DHT22;4957;51.412;6.724;2023-04-03T13:14:15;14.40;36.80
9837;DHT22;4957;51.412;6.724;2023-04-03T13:16:41;14.30;36.70
9837;DHT22;4957;51.412;6.724;2023-04-03T13:19:16;14.30;37.70
9837;DHT22;4957;51.412;6.724;2023-04-03T13:21:42;14.20;39.70
9837;DHT22;4957;51.412;6.724;2023-04-03T13:24:09;14.10;39.10
9837;DHT22;4957;51.412;6.724;2023-04-03T13:26:36;14.00;39.10
9837;DHT22;4957;51.412;6.724;2023-04-03T13:29:06;14.00;41.00
9837;DHT22;4957;51.412;6.724;2023-04-03T13:31:34;14.00;39.10
9837;DHT22;4957;51.412;6.724;2023-04-03T13:42:30;13.80;37.60
9837;DHT22;4957;51.412;6.724;2023-04-03T13:44:36;13.80;39.90
9837;DHT22;4957;51.412;6.724;2023-04-03T13:49:39;13.70;38.30
9837;DHT22;4957;51.412;6.724;2023-04-03T13:52:41;13.60;37.80
9837;DHT22;4957;51.412;6.724;2023-04-03T13:55:29;13.60;37.40
9837;DHT22;4957;51.412;6.724;2023-04-03T14:03:13;13.40;38.50
9837;DHT22;4957;51.412;6.724;2023-04-03T14:05:39;13.40;37.10
9837;DHT22;4957;51.412;6.724;2023-04-03T14:08:05;13.30;39.90
9837;DHT22;4957;51.412;6.724;2023-04-03T14:10:32;13.30;38.70
9837;DHT22;4957;51.412;6.724;2023-04-03T14:12:58;13.30;38.50
9837;DHT22;4957;51.412;6.724;2023-04-03T14:15:27;13.30;37.60
9837;DHT22;4957;51.412;6.724;2023-04-03T14:17:53;13.30;37.50
9837;DHT22;4957;51.412;6.724;2023-04-03T14:20:24;13.30;39.40
9837;DHT22;4957;51.412;6.724;2023-04-03T14:22:50;13.20;37.70
9837;DHT22;4957;51.412;6.724;2023-04-03T14:25:17;13.20;37.90
9837;DHT22;4957;51.412;6.724;2023-04-03T14:27:46;13.20;36.90
9837;DHT22;4957;51.412;6.724;2023-04-03T14:32:41;13.10;37.10
9837;DHT22;4957;51.412;6.724;2023-04-03T14:35:07;13.10;38.30
9837;DHT22;4957;51.412;6.724;2023-04-03T14:37:33;13.00;38.30
9837;DHT22;4957;51.412;6.724;2023-04-03T14:40:00;13.00;39.20
9837;DHT22;4957;51.412;6.724;2023-04-03T14:42:29;12.90;39.80
9837;DHT22;4957;51.412;6.724;2023-04-03T14:44:56;12.90;38.50
9837;DHT22;4957;51.412;6.724;2023-04-03T14:47:25;12.90;42.30
9837;DHT22;4957;51.412;6.724;2023-04-03T14:49:53;12.90;38.90
9837;DHT22;4957;51.412;6.724;2023-04-03T14:52:22;12.80;41.70
9837;DHT22;4957;51.412;6.724;2023-04-03T14:54:49;12.80;40.50
9837;DHT22;4957;51.412;6.724;2023-04-03T14:57:16;12.80;40.70
9837;DHT22;4957;51.412;6.724;2023-04-03T14:59:43;12.70;40.20
9837;DHT22;4957;51.412;6.724;2023-04-03T15:04:54;12.70;40.80
9837;DHT22;4957;51.412;6.724;2023-04-03T15:07:20;12.70;40.00
9837;DHT22;4957;51.412;6.724;2023-04-03T15:09:45;12.70;39.90
9837;DHT22;4957;51.412;6.724;2023-04-03T15:12:12;12.60;39.80
9837;DHT22;4957;51.412;6.724;2023-04-03T15:14:37;12.60;40.40
9837;DHT22;4957;51.412;6.724;2023-04-03T15:17:05;12.50;41.00
9837;DHT22;4957;51.412;6.724;2023-04-03T15:19:37;12.50;41.60
9837;DHT22;4957;51.412;6.724;2023-04-03T15:22:03;12.50;41.60
9837;DHT22;4957;51.412;6.724;2023-04-03T15:24:29;12.50;40.00
9837;DHT22;4957;51.412;6.724;2023-04-03T15:27:03;12.50;40.30
9837;DHT22;4957;51.412;6.724;2023-04-03T15:29:40;12.40;40.40
9837;DHT22;4957;51.412;6.724;2023-04-03T15:32:07;12.40;41.30
9837;DHT22;4957;51.412;6.724;2023-04-03T15:34:34;12.40;41.00
9837;DHT22;4957;51.412;6.724;2023-04-03T15:37:01;12.30;40.40
9837;DHT22;4957;51.412;6.724;2023-04-03T15:39:26;12.30;40.40
9837;DHT22;4957;51.412;6.724;2023-04-03T15:41:52;12.20;41.20
9837;DHT22;4957;51.412;6.724;2023-04-03T15:44:19;12.20;41.90
9837;DHT22;4957;51.412;6.724;2023-04-03T15:46:46;12.20;40.90
9837;DHT22;4957;51.412;6.724;2023-04-03T15:49:14;12.10;41.70
9837;DHT22;4957;51.412;6.724;2023-04-03T15:51:40;12.10;40.40
9837;DHT22;4957;51.412;6.724;2023-04-03T15:54:06;12.10;40.30
9837;DHT22;4957;51.412;6.724;2023-04-03T15:56:32;12.10;42.30
9837;DHT22;4957;51.412;6.724;2023-04-03T15:58:57;12.00;41.80
9837;DHT22;4957;51.412;6.724;2023-04-03T16:01:23;12.00;40.40
9837;DHT22;4957;51.412;6.724;2023-04-03T16:03:49;11.90;40.40
9837;DHT22;4957;51.412;6.724;2023-04-03T16:06:16;11.90;39.80
9837;DHT22;4957;51.412;6.724;2023-04-03T16:08:44;11.80;42.50
9837;DHT22;4957;51.412;6.724;2023-04-03T16:11:10;11.80;41.50
9837;DHT22;4957;51.412;6.724;2023-04-03T16:13:36;11.70;42.10
9837;DHT22;4957;51.412;6.724;2023-04-03T16:16:02;11.70;42.20
9837;DHT22;4957;51.412;6.724;2023-04-03T16:18:29;11.60;41.90
9837;DHT22;4957;51.412;6.724;2023-04-03T16:20:54;11.60;42.00
9837;DHT22;4957;51.412;6.724;2023-04-03T16:23:20;11.50;42.00
9837;DHT22;4957;51.412;6.724;2023-04-03T16:25:47;11.50;43.30
9837;DHT22;4957;51.412;6.724;2023-04-03T16:28:13;11.40;44.00
9837;DHT22;4957;51.412;6.724;2023-04-03T16:30:43;11.40;43.20
9837;DHT22;4957;51.412;6.724;2023-04-03T16:33:09;11.40;43.90
9837;DHT22;4957;51.412;6.724;2023-04-03T16:35:36;11.40;43.60
9837;DHT22;4957;51.412;6.724;2023-04-03T16:38:01;11.40;43.60
9837;DHT22;4957;51.412;6.724;2023-04-03T16:40:27;11.40;44.40
9837;DHT22;4957;51.412;6.724;2023-04-03T16:42:53;11.40;44.40
9837;DHT22;4957;51.412;6.724;2023-04-03T16:45:18;11.30;42.70
9837;DHT22;4957;51.412;6.724;2023-04-03T16:47:44;11.20;43.20
9837;DHT22;4957;51.412;6.724;2023-04-03T16:50:10;11.20;42.40
9837;DHT22;4957;51.412;6.724;2023-04-03T16:52:36;11.10;42.70
9837;DHT22;4957;51.412;6.724;2023-04-03T16:55:02;11.10;42.10
9837;DHT22;4957;51.412;6.724;2023-04-03T16:57:28;11.10;44.60
9837;DHT22;4957;51.412;6.724;2023-04-03T16:59:54;11.00;44.00
9837;DHT22;4957;51.412;6.724;2023-04-03T17:02:21;11.00;44.20
9837;DHT22;4957;51.412;6.724;2023-04-03T17:04:47;10.90;43.00
9837;DHT22;4957;51.412;6.724;2023-04-03T17:07:12;10.90;45.30
9837;DHT22;4957;51.412;6.724;2023-04-03T17:09:38;10.90;44.00
9837;DHT22;4957;51.412;6.724;2023-04-03T17:12:04;10.80;43.10
9837;DHT22;4957;51.412;6.724;2023-04-03T17:14:30;10.70;42.10
9837;DHT22;4957;51.412;6.724;2023-04-03T17:16:55;10.70;42.90
9837;DHT22;4957;51.412;6.724;2023-04-03T17:19:21;10.60;44.50
9837;DHT22;4957;51.412;6.724;2023-04-03T17:21:48;10.60;42.70
9837;DHT22;4957;51.412;6.724;2023-04-03T17:24:14;10.50;42.80
9837;DHT22;4957;51.412;6.724;2023-04-03T17:26:41;10.40;43.70
9837;DHT22;4957;51.412;6.724;2023-04-03T17:29:07;10.40;44.30
9837;DHT22;4957;51.412;6.724;2023-04-03T17:31:33;10.30;43.20
9837;DHT22;4957;51.412;6.724;2023-04-03T17:33:59;10.30;44.40
9837;DHT22;4957;51.412;6.724;2023-04-03T17:36:31;10.20;44.20
9837;DHT22;4957;51.412;6.724;2023-04-03T17:38:57;10.20;45.80
9837;DHT22;4957;51.412;6.724;2023-04-03T17:41:23;10.20;45.40
9837;DHT22;4957;51.412;6.724;2023-04-03T17:43:49;10.20;46.20
9837;DHT22;4957;51.412;6.724;2023-04-03T17:46:15;10.20;44.60
9837;DHT22;4957;51.412;6.724;2023-04-03T17:48:42;10.10;45.70
9837;DHT22;4957;51.412;6.724;2023-04-03T17:51:12;10.00;44.00
9837;DHT22;4957;51.412;6.724;2023-04-03T17:53:39;10.00;44.20
9837;DHT22;4957;51.412;6.724;2023-04-03T17:56:12;9.80;45.70
9837;DHT22;4957;51.412;6.724;2023-04-03T17:58:39;9.80;45.70
9837;DHT22;4957;51.412;6.724;2023-04-03T18:01:09;9.80;46.00
9837;DHT22;4957;51.412;6.724;2023-04-03T18:03:35;9.80;47.50
9837;DHT22;4957;51.412;6.724;2023-04-03T18:06:05;9.70;47.20
9837;DHT22;4957;51.412;6.724;2023-04-03T18:08:37;9.70;47.60
9837;DHT22;4957;51.412;6.724;2023-04-03T18:11:04;9.60;46.60
9837;DHT22;4957;51.412;6.724;2023-04-03T18:13:30;9.60;48.40
9837;DHT22;4957;51.412;6.724;2023-04-03T18:15:56;9.60;47.20
9837;DHT22;4957;51.412;6.724;2023-04-03T18:18:22;9.60;47.00
9837;DHT22;4957;51.412;6.724;2023-04-03T18:20:48;9.50;46.40